• Join FlightAware (Why Join?)
  • Login
  • US Flag 
08:46PM EDT


 

Airport Tracker/Info


-or-


 

Live Flight TrackerFlight Track Log ✈ OPT732 ✈ 11-May-2013 ✈ KSJC - KSNA

Flight Track Log - Related Links

Times and Time Zones

All times are in EDT time to prevent confusion due to time zone crossing. See the OPT732 flight status page for this flight to view local times or setup timezone preferences in your user account.

Time Position Orientation Groundspeed Altitude Reporting Facility
EDT Latitude Longitude Course Direction KTS MPH feet Rate Location/Type
03:00PM 37.4000 -121.9667 360° North 171 197 2,700  Level Northern Cal TRACON
03:01PM 37.4333 -121.9667 360° North 229 264 5,000 1,200 Climbing Northern Cal TRACON
03:02PM 37.4000 -121.8833 117° Southeast 270 311 5,200 1,800 Climbing Northern Cal TRACON
03:03PM 37.3333 -121.8167 142° Southeast 282 325 8,900 2,820 Climbing Northern Cal TRACON
03:04PM 37.3256 -121.8019 124° Southeast 276 318 9,500 1,980 Climbing Oakland Center
03:05PM 37.2489 -121.7183 139° Southeast 316 364 11,800 2,220 Climbing Oakland Center
03:06PM 37.1794 -121.6383 137° Southeast 336 387 14,100 2,160 Climbing Oakland Center
03:07PM 37.1067 -121.5567 138° Southeast 350 403 16,200 1,740 Climbing Oakland Center
03:08PM 37.0303 -121.4744 139° Southeast 365 420 17,700 1,560 Climbing Oakland Center
03:09PM 36.9525 -121.3856 138° Southeast 377 434 19,500 1,680 Climbing Oakland Center
03:10PM 36.8683 -121.2956 139° Southeast 396 456 21,200 1,860 Climbing Oakland Center
03:11PM 36.7700 -121.1875 139° Southeast 410 472 23,400 1,980 Climbing Oakland Center
03:12PM 36.6817 -121.0922 139° Southeast 418 481 25,300 1,860 Climbing Oakland Center
03:13PM 36.5919 -120.9936 139° Southeast 429 494 27,300 1,860 Climbing Oakland Center
03:14PM 36.4983 -120.8933 139° Southeast 441 507 29,100 1,860 Climbing Oakland Center
03:15PM 36.4047 -120.7867 137° Southeast 453 521 31,200 1,860 Climbing Oakland Center
03:16PM 36.3075 -120.6839 140° Southeast 459 528 33,000 1,500 Climbing Oakland Center
03:17PM 36.2058 -120.5764 140° Southeast 477 549 34,300 1,380 Climbing Oakland Center
03:18PM 36.1000 -120.4589 138° Southeast 517 595 35,900 1,320 Climbing Oakland Center
03:19PM 35.9942 -120.3469 139° Southeast 487 560 37,000 480 Climbing Oakland Center
03:20PM 35.8789 -120.2244 139° Southeast 538 619 37,000  Level Oakland Center
03:21PM 35.7614 -120.0981 139° Southeast 551 634 37,000  Level Oakland Center
03:22PM 35.6589 -119.9528 131° Southeast 554 638 37,000  Level Oakland Center
03:23PM 35.5392 -119.7822 131° Southeast 547 629 37,000  Level Oakland Center
03:24PM 35.4203 -119.6614 140° Southeast 559 643 37,000  Level Oakland Center
03:25PM 35.2825 -119.5744 153° Southeast 551 634 37,000 -60 Level Los Angeles Center
03:26PM 35.1447 -119.4883 153° Southeast 552 635 36,900  Descending Los Angeles Center
03:27PM 35.0075 -119.4017 153° Southeast 553 636 37,000 -1,440 Climbing Los Angeles Center
03:28PM 34.8464 -119.3006 153° Southeast 543 625 34,000 -2,820 Descending Los Angeles Center
03:29PM 34.7144 -119.2158 152° Southeast 536 617 31,200 -2,580 Descending Los Angeles Center
03:31PM 34.5714 -119.1303 154° Southeast 534 615 28,200 -2,820 Descending Los Angeles Center
03:32PM 34.4181 -119.0356 153° Southeast 521 600 24,900 -2,940 Descending Los Angeles Center
03:33PM 34.2942 -118.9589 153° Southeast 503 579 22,200 -2,520 Descending Los Angeles Center
03:34PM 34.1767 -118.8847 152° Southeast 476 548 19,700 -2,340 Descending Los Angeles Center
03:35PM 34.0661 -118.8181 153° Southeast 444 511 17,400 -2,340 Descending Los Angeles Center
03:36PM 33.9528 -118.7486 153° Southeast 405 466 14,900 -1,500 Descending Los Angeles Center
03:37PM 33.8361 -118.6919 158° South 367 422 14,000 -840 Descending Los Angeles Center
03:38PM 33.7364 -118.6553 163° South 369 425 13,100 -1,380 Descending Los Angeles Center
03:39PM 33.6486 -118.6244 164° South 335 386 11,200 -1,800 Descending Los Angeles Center
03:40PM 33.5717 -118.5864 158° South 304 350 9,500 -1,740 Descending Los Angeles Center
03:41PM 33.5278 -118.5017 122° Southeast 280 322 7,700 -1,800 Descending Los Angeles Center
03:42PM 33.5267 -118.4161 91° East 267 307 5,800 -1,320 Descending Los Angeles Center
03:43PM 33.5272 -118.3292 90° East 264 304 5,000 -420 Descending Los Angeles Center
03:44PM 33.5497 -118.2519 71° East 257 296 5,000  Level Los Angeles Center
03:45PM 33.5742 -118.1806 68° East 244 281 5,000  Level Los Angeles Center
03:46PM 33.6000 -118.1014 69° East 227 261 5,000  Level Los Angeles Center
03:47PM 33.6219 -118.0392 67° East 211 243 5,000  Level Los Angeles Center
03:48PM 33.6631 -117.9886 46° Northeast 218 251 5,000  Level Los Angeles Center
03:50PM 33.7164 -117.9500 31° Northeast 224 258 5,000 -720 Level Los Angeles Center
03:51PM 33.7800 -117.9003 33° Northeast 231 266 3,600 -1,080 Descending Los Angeles Center
03:52PM 33.7728 -117.8344 98° East 213 245 2,800 -1,140 Descending Los Angeles Center
03:53PM 33.7297 -117.8342 180° South 184 212 1,300 -1,200 Descending Los Angeles Center
03:54PM 33.6947 -117.8564 208° Southwest 161 185 400 -600 Descending Los Angeles Center
03:55PM 33.6642 -117.8736 205° Southwest 152 175 100 -300 Descending Los Angeles Center